Airfield :
LOGIN :

Register | Disclaimer

   EN    FR    IT 

 










Legend :    VFR   Marginal VFR   IFR   Intensive IFR   Very Intensive IFR
Visi :
Ceiling :
>= 8 km
>= 3000ft
5 to 8 km
1000 to 3000 ft
1500m to 5 km
500 to 1000 ft
800 to 1500m
200 to 500 ft
< 800m
< 200 ft
Symbols :   Thunderstorms  Fog  Heavy snow  Heavy precipitations  Wind > 20 kt
SIGMETs :     Misc.  Thunderstorms  Icing  Turbulence  Mountain Waves  Volcanic Ashes






- Airport Elevation : 17 ft
- IATA code : GRS


LIRS - Grosseto

CURRENT METAR :
  • 052255Z 03012KT CAVOK 03/M01 Q1030

EXPIRED METARs :
  • 052155Z 02013KT CAVOK 04/M01 Q1030 RMK SKC VIS MIN 9999 WIND THR03 03013KT WIND THR21 04012KT BLU
  • 052055Z 03010KT CAVOK 05/M03 Q1029

TAF TAF LIRS
Valid from the 06 at 00:00 until the 06 at 09:00 UTC


052300Z 0600/0609 05015KT CAVOK
TEMPO 0600/0606 05020G30KT



MET'MAP, your aeronautical weather chart ! - Copyright ORBIFLY December 2007 - Disclaimer

ORBIFLY MET'MAP TEAM :

Programming & Development : Alexandra Zaïnal
Original concept : Baudouin d'Aumeries
Technical & hardware support : Manuel Goepfert
Assistance : Marc-Olivier Méhu




SOURCES & CREDITS :

   NOAA